sensor_id;sensor_type;location;lat;lon;timestamp;P1;durP1;ratioP1;P2;durP2;ratioP2
3801;SDS011;1916;51.798;12.246;2022-07-09T00:00:08;14.27;;;8.00;;
3801;SDS011;1916;51.798;12.246;2022-07-09T00:02:10;10.37;;;6.60;;
3801;SDS011;1916;51.798;12.246;2022-07-09T00:04:13;6.70;;;6.10;;
3801;SDS011;1916;51.798;12.246;2022-07-09T00:06:15;7.67;;;6.57;;
3801;SDS011;1916;51.798;12.246;2022-07-09T00:08:17;17.50;;;6.70;;
3801;SDS011;1916;51.798;12.246;2022-07-09T00:10:19;14.73;;;5.73;;
3801;SDS011;1916;51.798;12.246;2022-07-09T00:12:22;9.07;;;5.97;;
3801;SDS011;1916;51.798;12.246;2022-07-09T00:14:24;6.97;;;5.70;;
3801;SDS011;1916;51.798;12.246;2022-07-09T00:16:26;7.03;;;5.47;;
3801;SDS011;1916;51.798;12.246;2022-07-09T00:18:28;7.13;;;6.00;;
3801;SDS011;1916;51.798;12.246;2022-07-09T00:20:31;7.97;;;6.33;;
3801;SDS011;1916;51.798;12.246;2022-07-09T00:22:33;10.03;;;6.10;;
3801;SDS011;1916;51.798;12.246;2022-07-09T00:24:35;6.97;;;5.80;;
3801;SDS011;1916;51.798;12.246;2022-07-09T00:26:38;6.63;;;5.90;;
3801;SDS011;1916;51.798;12.246;2022-07-09T00:28:40;14.60;;;6.60;;
3801;SDS011;1916;51.798;12.246;2022-07-09T00:30:42;9.00;;;6.17;;
3801;SDS011;1916;51.798;12.246;2022-07-09T00:32:44;9.07;;;6.53;;
3801;SDS011;1916;51.798;12.246;2022-07-09T00:34:46;11.97;;;6.10;;
3801;SDS011;1916;51.798;12.246;2022-07-09T00:36:48;9.30;;;6.60;;
3801;SDS011;1916;51.798;12.246;2022-07-09T00:38:50;9.50;;;6.30;;
3801;SDS011;1916;51.798;12.246;2022-07-09T00:40:53;8.87;;;6.10;;
3801;SDS011;1916;51.798;12.246;2022-07-09T00:42:55;11.97;;;5.57;;
3801;SDS011;1916;51.798;12.246;2022-07-09T00:44:57;7.13;;;6.43;;
3801;SDS011;1916;51.798;12.246;2022-07-09T00:46:59;10.23;;;5.80;;
3801;SDS011;1916;51.798;12.246;2022-07-09T00:49:01;7.67;;;6.60;;
3801;SDS011;1916;51.798;12.246;2022-07-09T00:51:05;6.27;;;5.67;;
3801;SDS011;1916;51.798;12.246;2022-07-09T00:53:09;13.63;;;6.53;;
3801;SDS011;1916;51.798;12.246;2022-07-09T00:55:12;10.53;;;6.30;;
3801;SDS011;1916;51.798;12.246;2022-07-09T00:57:14;15.03;;;5.90;;
3801;SDS011;1916;51.798;12.246;2022-07-09T00:59:17;11.93;;;7.20;;
3801;SDS011;1916;51.798;12.246;2022-07-09T01:01:19;11.70;;;6.67;;
3801;SDS011;1916;51.798;12.246;2022-07-09T01:03:24;7.03;;;6.33;;
3801;SDS011;1916;51.798;12.246;2022-07-09T01:05:27;9.77;;;6.40;;
3801;SDS011;1916;51.798;12.246;2022-07-09T01:07:29;6.90;;;6.30;;
3801;SDS011;1916;51.798;12.246;2022-07-09T01:09:31;6.60;;;6.00;;
3801;SDS011;1916;51.798;12.246;2022-07-09T01:11:34;9.97;;;6.87;;
3801;SDS011;1916;51.798;12.246;2022-07-09T01:13:36;10.27;;;7.10;;
3801;SDS011;1916;51.798;12.246;2022-07-09T01:15:38;13.93;;;6.73;;
3801;SDS011;1916;51.798;12.246;2022-07-09T01:17:40;7.33;;;5.80;;
3801;SDS011;1916;51.798;12.246;2022-07-09T01:19:43;8.60;;;6.50;;
3801;SDS011;1916;51.798;12.246;2022-07-09T01:21:45;12.03;;;6.83;;
3801;SDS011;1916;51.798;12.246;2022-07-09T01:23:47;11.93;;;7.10;;
3801;SDS011;1916;51.798;12.246;2022-07-09T01:25:49;10.13;;;6.80;;
3801;SDS011;1916;51.798;12.246;2022-07-09T01:27:52;6.70;;;5.80;;
3801;SDS011;1916;51.798;12.246;2022-07-09T01:29:54;11.53;;;6.60;;
3801;SDS011;1916;51.798;12.246;2022-07-09T01:31:56;10.23;;;6.53;;
3801;SDS011;1916;51.798;12.246;2022-07-09T01:33:58;14.77;;;6.80;;
3801;SDS011;1916;51.798;12.246;2022-07-09T01:36:00;9.70;;;7.10;;
3801;SDS011;1916;51.798;12.246;2022-07-09T01:38:03;9.40;;;6.47;;
3801;SDS011;1916;51.798;12.246;2022-07-09T01:40:05;7.40;;;6.70;;
3801;SDS011;1916;51.798;12.246;2022-07-09T01:42:08;11.07;;;7.40;;
3801;SDS011;1916;51.798;12.246;2022-07-09T01:44:10;10.43;;;6.43;;
3801;SDS011;1916;51.798;12.246;2022-07-09T01:46:12;14.13;;;7.13;;
3801;SDS011;1916;51.798;12.246;2022-07-09T01:48:14;7.93;;;7.13;;
3801;SDS011;1916;51.798;12.246;2022-07-09T01:50:17;7.60;;;6.33;;
3801;SDS011;1916;51.798;12.246;2022-07-09T01:52:19;10.37;;;6.93;;
3801;SDS011;1916;51.798;12.246;2022-07-09T01:54:21;12.67;;;8.27;;
3801;SDS011;1916;51.798;12.246;2022-07-09T01:56:23;8.60;;;7.80;;
3801;SDS011;1916;51.798;12.246;2022-07-09T01:58:25;9.00;;;8.10;;
3801;SDS011;1916;51.798;12.246;2022-07-09T02:00:27;10.80;;;7.80;;
3801;SDS011;1916;51.798;12.246;2022-07-09T02:02:30;9.10;;;8.20;;
3801;SDS011;1916;51.798;12.246;2022-07-09T02:04:33;9.83;;;8.30;;
3801;SDS011;1916;51.798;12.246;2022-07-09T02:06:35;15.70;;;8.40;;
3801;SDS011;1916;51.798;12.246;2022-07-09T02:08:37;11.33;;;7.83;;
3801;SDS011;1916;51.798;12.246;2022-07-09T02:10:41;11.33;;;8.20;;
3801;SDS011;1916;51.798;12.246;2022-07-09T02:12:43;12.57;;;7.33;;
3801;SDS011;1916;51.798;12.246;2022-07-09T02:14:45;9.47;;;8.53;;
3801;SDS011;1916;51.798;12.246;2022-07-09T02:16:47;13.53;;;9.97;;
3801;SDS011;1916;51.798;12.246;2022-07-09T02:18:50;19.93;;;9.73;;
3801;SDS011;1916;51.798;12.246;2022-07-09T02:20:52;15.80;;;9.57;;
3801;SDS011;1916;51.798;12.246;2022-07-09T02:22:54;11.27;;;9.03;;
3801;SDS011;1916;51.798;12.246;2022-07-09T02:24:57;17.67;;;10.77;;
3801;SDS011;1916;51.798;12.246;2022-07-09T02:26:59;15.87;;;10.00;;
3801;SDS011;1916;51.798;12.246;2022-07-09T02:29:01;15.57;;;9.80;;
3801;SDS011;1916;51.798;12.246;2022-07-09T02:31:03;12.17;;;9.57;;
3801;SDS011;1916;51.798;12.246;2022-07-09T02:33:06;18.93;;;9.63;;
3801;SDS011;1916;51.798;12.246;2022-07-09T02:35:08;11.80;;;10.00;;
3801;SDS011;1916;51.798;12.246;2022-07-09T02:37:11;13.43;;;10.93;;
3801;SDS011;1916;51.798;12.246;2022-07-09T02:39:13;19.20;;;11.50;;
3801;SDS011;1916;51.798;12.246;2022-07-09T02:41:15;16.93;;;11.70;;
3801;SDS011;1916;51.798;12.246;2022-07-09T02:43:17;21.77;;;12.57;;
3801;SDS011;1916;51.798;12.246;2022-07-09T02:45:20;18.10;;;10.47;;
3801;SDS011;1916;51.798;12.246;2022-07-09T02:47:23;13.60;;;10.60;;
3801;SDS011;1916;51.798;12.246;2022-07-09T02:49:25;17.90;;;11.27;;
3801;SDS011;1916;51.798;12.246;2022-07-09T02:51:27;14.70;;;10.37;;
3801;SDS011;1916;51.798;12.246;2022-07-09T02:53:29;14.23;;;10.10;;
3801;SDS011;1916;51.798;12.246;2022-07-09T02:55:31;12.10;;;9.03;;
3801;SDS011;1916;51.798;12.246;2022-07-09T02:57:34;18.87;;;9.33;;
3801;SDS011;1916;51.798;12.246;2022-07-09T02:59:36;15.70;;;9.60;;
3801;SDS011;1916;51.798;12.246;2022-07-09T03:01:38;16.57;;;8.50;;
3801;SDS011;1916;51.798;12.246;2022-07-09T03:03:41;12.00;;;7.97;;
3801;SDS011;1916;51.798;12.246;2022-07-09T03:05:43;10.90;;;8.23;;
3801;SDS011;1916;51.798;12.246;2022-07-09T03:07:45;18.77;;;8.50;;
3801;SDS011;1916;51.798;12.246;2022-07-09T03:09:48;17.80;;;8.80;;
3801;SDS011;1916;51.798;12.246;2022-07-09T03:11:50;9.13;;;8.07;;
3801;SDS011;1916;51.798;12.246;2022-07-09T03:13:52;12.07;;;8.20;;
3801;SDS011;1916;51.798;12.246;2022-07-09T03:15:54;13.30;;;7.20;;
3801;SDS011;1916;51.798;12.246;2022-07-09T03:17:56;20.60;;;7.40;;
3801;SDS011;1916;51.798;12.246;2022-07-09T03:19:58;14.23;;;7.63;;
3801;SDS011;1916;51.798;12.246;2022-07-09T03:22:00;11.20;;;8.67;;
3801;SDS011;1916;51.798;12.246;2022-07-09T03:24:03;10.93;;;8.10;;
3801;SDS011;1916;51.798;12.246;2022-07-09T03:26:05;14.00;;;7.73;;
3801;SDS011;1916;51.798;12.246;2022-07-09T03:28:08;12.03;;;8.60;;
3801;SDS011;1916;51.798;12.246;2022-07-09T03:30:10;9.40;;;7.73;;
3801;SDS011;1916;51.798;12.246;2022-07-09T03:32:12;12.17;;;8.10;;
3801;SDS011;1916;51.798;12.246;2022-07-09T03:34:15;11.43;;;7.20;;
3801;SDS011;1916;51.798;12.246;2022-07-09T03:36:17;8.67;;;7.60;;
3801;SDS011;1916;51.798;12.246;2022-07-09T03:38:19;11.53;;;7.90;;
3801;SDS011;1916;51.798;12.246;2022-07-09T03:40:21;13.10;;;6.90;;
3801;SDS011;1916;51.798;12.246;2022-07-09T03:42:23;16.30;;;8.17;;
3801;SDS011;1916;51.798;12.246;2022-07-09T03:44:26;14.93;;;7.63;;
3801;SDS011;1916;51.798;12.246;2022-07-09T03:46:28;11.77;;;6.70;;
3801;SDS011;1916;51.798;12.246;2022-07-09T03:48:31;27.93;;;8.83;;
3801;SDS011;1916;51.798;12.246;2022-07-09T03:50:33;10.77;;;7.33;;
3801;SDS011;1916;51.798;12.246;2022-07-09T03:52:36;15.50;;;7.67;;
3801;SDS011;1916;51.798;12.246;2022-07-09T03:54:38;8.30;;;7.30;;
3801;SDS011;1916;51.798;12.246;2022-07-09T03:56:40;15.17;;;7.83;;
3801;SDS011;1916;51.798;12.246;2022-07-09T03:58:42;11.97;;;8.00;;
3801;SDS011;1916;51.798;12.246;2022-07-09T04:00:45;14.13;;;8.30;;
3801;SDS011;1916;51.798;12.246;2022-07-09T04:02:47;11.00;;;7.20;;
3801;SDS011;1916;51.798;12.246;2022-07-09T04:04:49;19.53;;;8.53;;
3801;SDS011;1916;51.798;12.246;2022-07-09T04:06:51;10.87;;;8.37;;
3801;SDS011;1916;51.798;12.246;2022-07-09T04:08:54;16.57;;;7.40;;
3801;SDS011;1916;51.798;12.246;2022-07-09T04:10:56;16.40;;;6.90;;
3801;SDS011;1916;51.798;12.246;2022-07-09T04:12:58;11.83;;;6.63;;
3801;SDS011;1916;51.798;12.246;2022-07-09T04:15:00;7.10;;;6.07;;
3801;SDS011;1916;51.798;12.246;2022-07-09T04:17:02;8.80;;;5.97;;
3801;SDS011;1916;51.798;12.246;2022-07-09T04:19:05;9.57;;;6.17;;
3801;SDS011;1916;51.798;12.246;2022-07-09T04:21:07;16.80;;;5.97;;
3801;SDS011;1916;51.798;12.246;2022-07-09T04:23:09;10.80;;;6.60;;
3801;SDS011;1916;51.798;12.246;2022-07-09T04:25:11;11.73;;;6.23;;
3801;SDS011;1916;51.798;12.246;2022-07-09T04:27:13;8.60;;;6.00;;
3801;SDS011;1916;51.798;12.246;2022-07-09T04:29:15;11.30;;;6.60;;
3801;SDS011;1916;51.798;12.246;2022-07-09T04:31:18;8.83;;;7.27;;
3801;SDS011;1916;51.798;12.246;2022-07-09T04:33:23;7.87;;;6.20;;
3801;SDS011;1916;51.798;12.246;2022-07-09T04:35:25;8.00;;;6.33;;
3801;SDS011;1916;51.798;12.246;2022-07-09T04:37:27;12.57;;;6.00;;
3801;SDS011;1916;51.798;12.246;2022-07-09T04:39:29;7.53;;;5.73;;
3801;SDS011;1916;51.798;12.246;2022-07-09T04:41:32;8.33;;;5.80;;
3801;SDS011;1916;51.798;12.246;2022-07-09T04:43:34;12.70;;;6.10;;
3801;SDS011;1916;51.798;12.246;2022-07-09T04:45:36;13.50;;;5.80;;
3801;SDS011;1916;51.798;12.246;2022-07-09T04:47:38;10.70;;;5.63;;
3801;SDS011;1916;51.798;12.246;2022-07-09T04:49:40;8.37;;;5.50;;
3801;SDS011;1916;51.798;12.246;2022-07-09T04:51:43;11.83;;;5.73;;
3801;SDS011;1916;51.798;12.246;2022-07-09T04:53:45;15.03;;;6.57;;
3801;SDS011;1916;51.798;12.246;2022-07-09T04:55:47;13.67;;;5.83;;
3801;SDS011;1916;51.798;12.246;2022-07-09T04:57:49;14.97;;;5.80;;
3801;SDS011;1916;51.798;12.246;2022-07-09T04:59:51;13.27;;;6.10;;
3801;SDS011;1916;51.798;12.246;2022-07-09T05:01:54;14.73;;;6.50;;
3801;SDS011;1916;51.798;12.246;2022-07-09T05:03:56;10.13;;;5.93;;
3801;SDS011;1916;51.798;12.246;2022-07-09T05:05:58;11.17;;;5.23;;
3801;SDS011;1916;51.798;12.246;2022-07-09T05:08:00;12.40;;;5.73;;
3801;SDS011;1916;51.798;12.246;2022-07-09T05:10:03;12.03;;;5.80;;
3801;SDS011;1916;51.798;12.246;2022-07-09T05:12:05;15.87;;;6.07;;
3801;SDS011;1916;51.798;12.246;2022-07-09T05:14:10;10.63;;;5.80;;
3801;SDS011;1916;51.798;12.246;2022-07-09T05:16:12;12.33;;;6.10;;
3801;SDS011;1916;51.798;12.246;2022-07-09T05:18:14;11.10;;;5.90;;
3801;SDS011;1916;51.798;12.246;2022-07-09T05:20:16;14.93;;;6.27;;
3801;SDS011;1916;51.798;12.246;2022-07-09T05:22:19;22.00;;;6.00;;
3801;SDS011;1916;51.798;12.246;2022-07-09T05:24:21;15.60;;;5.47;;
3801;SDS011;1916;51.798;12.246;2022-07-09T05:26:23;11.30;;;6.30;;
3801;SDS011;1916;51.798;12.246;2022-07-09T05:28:25;15.50;;;5.70;;
3801;SDS011;1916;51.798;12.246;2022-07-09T05:30:27;17.80;;;7.03;;
3801;SDS011;1916;51.798;12.246;2022-07-09T05:32:29;12.60;;;5.93;;
3801;SDS011;1916;51.798;12.246;2022-07-09T05:34:31;19.87;;;7.90;;
3801;SDS011;1916;51.798;12.246;2022-07-09T05:36:34;25.10;;;6.70;;
3801;SDS011;1916;51.798;12.246;2022-07-09T05:38:36;18.00;;;7.00;;
3801;SDS011;1916;51.798;12.246;2022-07-09T05:40:38;14.33;;;6.80;;
3801;SDS011;1916;51.798;12.246;2022-07-09T05:42:40;14.80;;;6.40;;
3801;SDS011;1916;51.798;12.246;2022-07-09T05:44:42;15.23;;;5.77;;
3801;SDS011;1916;51.798;12.246;2022-07-09T05:46:45;14.10;;;6.20;;
3801;SDS011;1916;51.798;12.246;2022-07-09T05:48:47;11.93;;;6.13;;
3801;SDS011;1916;51.798;12.246;2022-07-09T05:50:49;14.23;;;6.30;;
3801;SDS011;1916;51.798;12.246;2022-07-09T05:52:51;15.13;;;5.47;;
3801;SDS011;1916;51.798;12.246;2022-07-09T05:54:53;9.57;;;5.67;;
3801;SDS011;1916;51.798;12.246;2022-07-09T05:56:55;9.30;;;5.80;;
3801;SDS011;1916;51.798;12.246;2022-07-09T05:58:57;9.67;;;6.10;;
3801;SDS011;1916;51.798;12.246;2022-07-09T06:00:59;12.13;;;6.60;;
3801;SDS011;1916;51.798;12.246;2022-07-09T06:03:02;13.63;;;5.50;;
3801;SDS011;1916;51.798;12.246;2022-07-09T06:05:04;14.13;;;5.40;;
3801;SDS011;1916;51.798;12.246;2022-07-09T06:07:06;11.63;;;5.60;;
3801;SDS011;1916;51.798;12.246;2022-07-09T06:09:09;17.33;;;5.77;;
3801;SDS011;1916;51.798;12.246;2022-07-09T06:11:11;10.30;;;5.60;;
3801;SDS011;1916;51.798;12.246;2022-07-09T06:13:13;17.30;;;5.77;;
3801;SDS011;1916;51.798;12.246;2022-07-09T06:15:15;12.83;;;5.40;;
3801;SDS011;1916;51.798;12.246;2022-07-09T06:17:18;13.33;;;5.10;;
3801;SDS011;1916;51.798;12.246;2022-07-09T06:19:20;12.00;;;5.50;;
3801;SDS011;1916;51.798;12.246;2022-07-09T06:21:22;15.27;;;5.90;;
3801;SDS011;1916;51.798;12.246;2022-07-09T06:23:24;12.23;;;5.07;;
3801;SDS011;1916;51.798;12.246;2022-07-09T06:25:27;10.10;;;4.90;;
3801;SDS011;1916;51.798;12.246;2022-07-09T06:27:29;11.40;;;5.67;;
3801;SDS011;1916;51.798;12.246;2022-07-09T06:29:31;10.40;;;4.97;;
3801;SDS011;1916;51.798;12.246;2022-07-09T06:31:33;8.90;;;5.23;;
3801;SDS011;1916;51.798;12.246;2022-07-09T06:33:36;9.47;;;5.40;;
3801;SDS011;1916;51.798;12.246;2022-07-09T06:35:38;9.33;;;5.00;;
3801;SDS011;1916;51.798;12.246;2022-07-09T06:37:41;11.40;;;5.97;;
3801;SDS011;1916;51.798;12.246;2022-07-09T06:39:43;12.70;;;4.97;;
3801;SDS011;1916;51.798;12.246;2022-07-09T06:41:48;11.47;;;5.20;;
3801;SDS011;1916;51.798;12.246;2022-07-09T06:43:51;12.77;;;5.80;;
3801;SDS011;1916;51.798;12.246;2022-07-09T06:45:53;17.77;;;5.43;;
3801;SDS011;1916;51.798;12.246;2022-07-09T06:47:55;8.43;;;4.73;;
3801;SDS011;1916;51.798;12.246;2022-07-09T06:49:57;8.47;;;5.30;;
3801;SDS011;1916;51.798;12.246;2022-07-09T06:52:00;22.23;;;5.40;;
3801;SDS011;1916;51.798;12.246;2022-07-09T06:54:02;8.90;;;5.30;;
3801;SDS011;1916;51.798;12.246;2022-07-09T06:56:04;12.93;;;4.83;;
3801;SDS011;1916;51.798;12.246;2022-07-09T06:58:07;12.73;;;5.47;;
3801;SDS011;1916;51.798;12.246;2022-07-09T07:00:09;10.17;;;4.93;;
3801;SDS011;1916;51.798;12.246;2022-07-09T07:02:11;8.63;;;4.77;;
3801;SDS011;1916;51.798;12.246;2022-07-09T07:04:14;11.87;;;5.30;;
3801;SDS011;1916;51.798;12.246;2022-07-09T07:06:16;14.70;;;6.60;;
3801;SDS011;1916;51.798;12.246;2022-07-09T07:08:18;9.00;;;4.67;;
3801;SDS011;1916;51.798;12.246;2022-07-09T07:10:21;10.20;;;4.43;;
3801;SDS011;1916;51.798;12.246;2022-07-09T07:12:24;13.93;;;4.97;;
3801;SDS011;1916;51.798;12.246;2022-07-09T07:14:27;10.43;;;3.40;;
3801;SDS011;1916;51.798;12.246;2022-07-09T07:16:29;8.30;;;3.40;;
3801;SDS011;1916;51.798;12.246;2022-07-09T07:18:31;8.57;;;3.90;;
3801;SDS011;1916;51.798;12.246;2022-07-09T07:20:34;8.23;;;3.73;;
3801;SDS011;1916;51.798;12.246;2022-07-09T07:22:36;10.93;;;3.97;;
3801;SDS011;1916;51.798;12.246;2022-07-09T07:24:38;11.20;;;4.50;;
3801;SDS011;1916;51.798;12.246;2022-07-09T07:26:41;5.43;;;3.90;;
3801;SDS011;1916;51.798;12.246;2022-07-09T07:28:43;9.93;;;4.50;;
3801;SDS011;1916;51.798;12.246;2022-07-09T07:30:45;8.57;;;4.03;;
3801;SDS011;1916;51.798;12.246;2022-07-09T07:32:47;11.50;;;3.77;;
3801;SDS011;1916;51.798;12.246;2022-07-09T07:34:50;9.40;;;4.00;;
3801;SDS011;1916;51.798;12.246;2022-07-09T07:36:52;9.77;;;3.43;;
3801;SDS011;1916;51.798;12.246;2022-07-09T07:38:54;7.73;;;3.43;;
3801;SDS011;1916;51.798;12.246;2022-07-09T07:40:56;8.70;;;3.97;;
3801;SDS011;1916;51.798;12.246;2022-07-09T07:42:58;10.20;;;4.60;;
3801;SDS011;1916;51.798;12.246;2022-07-09T07:45:01;5.50;;;3.30;;
3801;SDS011;1916;51.798;12.246;2022-07-09T07:47:03;6.47;;;3.73;;
3801;SDS011;1916;51.798;12.246;2022-07-09T07:49:06;11.23;;;4.17;;
3801;SDS011;1916;51.798;12.246;2022-07-09T07:51:08;5.20;;;3.40;;
3801;SDS011;1916;51.798;12.246;2022-07-09T07:53:10;9.20;;;3.23;;
3801;SDS011;1916;51.798;12.246;2022-07-09T07:55:13;6.13;;;2.70;;
3801;SDS011;1916;51.798;12.246;2022-07-09T07:57:15;5.80;;;2.97;;
3801;SDS011;1916;51.798;12.246;2022-07-09T07:59:17;5.20;;;3.00;;
3801;SDS011;1916;51.798;12.246;2022-07-09T08:01:19;6.60;;;2.60;;
3801;SDS011;1916;51.798;12.246;2022-07-09T08:03:21;6.50;;;2.67;;
3801;SDS011;1916;51.798;12.246;2022-07-09T08:05:32;11.40;;;3.07;;
3801;SDS011;1916;51.798;12.246;2022-07-09T08:07:34;20.63;;;3.73;;
3801;SDS011;1916;51.798;12.246;2022-07-09T08:09:36;5.97;;;2.67;;
3801;SDS011;1916;51.798;12.246;2022-07-09T08:11:38;9.17;;;2.70;;
3801;SDS011;1916;51.798;12.246;2022-07-09T08:13:41;8.50;;;3.20;;
3801;SDS011;1916;51.798;12.246;2022-07-09T08:15:43;5.53;;;2.60;;
3801;SDS011;1916;51.798;12.246;2022-07-09T08:17:45;4.73;;;2.50;;
3801;SDS011;1916;51.798;12.246;2022-07-09T08:19:48;7.03;;;3.50;;
3801;SDS011;1916;51.798;12.246;2022-07-09T08:21:50;5.30;;;2.70;;
3801;SDS011;1916;51.798;12.246;2022-07-09T08:23:52;4.80;;;2.60;;
3801;SDS011;1916;51.798;12.246;2022-07-09T08:25:58;8.60;;;2.70;;
3801;SDS011;1916;51.798;12.246;2022-07-09T08:28:01;5.87;;;2.30;;
3801;SDS011;1916;51.798;12.246;2022-07-09T08:30:03;6.10;;;2.73;;
3801;SDS011;1916;51.798;12.246;2022-07-09T08:32:06;5.40;;;2.70;;
3801;SDS011;1916;51.798;12.246;2022-07-09T08:34:08;13.20;;;2.87;;
3801;SDS011;1916;51.798;12.246;2022-07-09T08:36:11;5.27;;;2.63;;
3801;SDS011;1916;51.798;12.246;2022-07-09T08:38:13;5.70;;;2.90;;
3801;SDS011;1916;51.798;12.246;2022-07-09T08:40:15;5.27;;;2.83;;
3801;SDS011;1916;51.798;12.246;2022-07-09T08:42:17;8.33;;;3.00;;
3801;SDS011;1916;51.798;12.246;2022-07-09T08:44:19;6.17;;;2.60;;
3801;SDS011;1916;51.798;12.246;2022-07-09T08:46:22;4.00;;;2.43;;
3801;SDS011;1916;51.798;12.246;2022-07-09T08:48:25;10.70;;;3.27;;
3801;SDS011;1916;51.798;12.246;2022-07-09T08:50:27;8.33;;;2.50;;
3801;SDS011;1916;51.798;12.246;2022-07-09T08:52:29;7.03;;;2.53;;
3801;SDS011;1916;51.798;12.246;2022-07-09T08:54:31;3.67;;;2.50;;
3801;SDS011;1916;51.798;12.246;2022-07-09T08:56:39;3.77;;;2.33;;
3801;SDS011;1916;51.798;12.246;2022-07-09T08:58:42;5.07;;;2.40;;
3801;SDS011;1916;51.798;12.246;2022-07-09T09:00:44;4.23;;;1.93;;
3801;SDS011;1916;51.798;12.246;2022-07-09T09:02:47;6.57;;;2.70;;
3801;SDS011;1916;51.798;12.246;2022-07-09T09:04:50;3.63;;;2.30;;
3801;SDS011;1916;51.798;12.246;2022-07-09T09:06:52;6.73;;;2.60;;
3801;SDS011;1916;51.798;12.246;2022-07-09T09:08:55;4.37;;;2.60;;
3801;SDS011;1916;51.798;12.246;2022-07-09T09:10:57;3.60;;;2.57;;
3801;SDS011;1916;51.798;12.246;2022-07-09T09:13:00;12.20;;;2.83;;
3801;SDS011;1916;51.798;12.246;2022-07-09T09:15:06;4.30;;;2.33;;
3801;SDS011;1916;51.798;12.246;2022-07-09T09:17:09;3.80;;;2.60;;
3801;SDS011;1916;51.798;12.246;2022-07-09T09:19:13;3.70;;;2.67;;
3801;SDS011;1916;51.798;12.246;2022-07-09T09:21:16;3.33;;;2.40;;
3801;SDS011;1916;51.798;12.246;2022-07-09T09:23:21;5.30;;;2.93;;
3801;SDS011;1916;51.798;12.246;2022-07-09T09:25:23;4.00;;;3.00;;
3801;SDS011;1916;51.798;12.246;2022-07-09T09:27:28;4.40;;;2.57;;
3801;SDS011;1916;51.798;12.246;2022-07-09T09:29:32;3.77;;;2.57;;
3801;SDS011;1916;51.798;12.246;2022-07-09T09:31:36;4.13;;;2.97;;
3801;SDS011;1916;51.798;12.246;2022-07-09T09:33:38;3.97;;;2.97;;
3801;SDS011;1916;51.798;12.246;2022-07-09T09:35:43;3.93;;;2.67;;
3801;SDS011;1916;51.798;12.246;2022-07-09T09:37:46;5.80;;;2.53;;
3801;SDS011;1916;51.798;12.246;2022-07-09T09:39:51;4.67;;;3.20;;
3801;SDS011;1916;51.798;12.246;2022-07-09T09:41:54;7.17;;;3.10;;
3801;SDS011;1916;51.798;12.246;2022-07-09T09:43:57;7.13;;;3.20;;
3801;SDS011;1916;51.798;12.246;2022-07-09T09:46:00;5.50;;;3.70;;
3801;SDS011;1916;51.798;12.246;2022-07-09T09:48:05;4.13;;;3.30;;
3801;SDS011;1916;51.798;12.246;2022-07-09T09:50:08;4.37;;;3.13;;
3801;SDS011;1916;51.798;12.246;2022-07-09T09:52:15;3.00;;;2.70;;
3801;SDS011;1916;51.798;12.246;2022-07-09T09:54:19;4.13;;;3.10;;
3801;SDS011;1916;51.798;12.246;2022-07-09T09:56:23;7.83;;;3.40;;
3801;SDS011;1916;51.798;12.246;2022-07-09T09:58:26;6.33;;;4.07;;
3801;SDS011;1916;51.798;12.246;2022-07-09T10:00:28;6.17;;;4.70;;
3801;SDS011;1916;51.798;12.246;2022-07-09T10:02:31;5.00;;;4.07;;
3801;SDS011;1916;51.798;12.246;2022-07-09T10:04:33;4.70;;;4.13;;
3801;SDS011;1916;51.798;12.246;2022-07-09T10:06:37;8.60;;;4.83;;
3801;SDS011;1916;51.798;12.246;2022-07-09T10:08:40;9.93;;;7.03;;
3801;SDS011;1916;51.798;12.246;2022-07-09T10:10:51;6.50;;;5.20;;
3801;SDS011;1916;51.798;12.246;2022-07-09T10:12:53;7.67;;;5.77;;
3801;SDS011;1916;51.798;12.246;2022-07-09T10:14:56;6.93;;;5.50;;
3801;SDS011;1916;51.798;12.246;2022-07-09T10:17:11;6.30;;;5.17;;
3801;SDS011;1916;51.798;12.246;2022-07-09T10:21:41;11.30;;;6.47;;
3801;SDS011;1916;51.798;12.246;2022-07-09T10:23:50;9.43;;;5.83;;
3801;SDS011;1916;51.798;12.246;2022-07-09T10:25:52;7.37;;;5.30;;
3801;SDS011;1916;51.798;12.246;2022-07-09T10:27:57;9.93;;;6.30;;
3801;SDS011;1916;51.798;12.246;2022-07-09T10:29:59;6.40;;;5.23;;
3801;SDS011;1916;51.798;12.246;2022-07-09T10:32:04;6.70;;;5.00;;
3801;SDS011;1916;51.798;12.246;2022-07-09T10:34:06;11.93;;;6.30;;
3801;SDS011;1916;51.798;12.246;2022-07-09T10:36:10;9.53;;;5.57;;
3801;SDS011;1916;51.798;12.246;2022-07-09T10:38:16;10.50;;;5.07;;
3801;SDS011;1916;51.798;12.246;2022-07-09T10:40:18;5.93;;;5.23;;
3801;SDS011;1916;51.798;12.246;2022-07-09T10:42:22;5.67;;;5.17;;
3801;SDS011;1916;51.798;12.246;2022-07-09T10:44:26;9.83;;;5.07;;
3801;SDS011;1916;51.798;12.246;2022-07-09T10:46:38;8.40;;;4.43;;
3801;SDS011;1916;51.798;12.246;2022-07-09T10:48:40;8.00;;;5.00;;
3801;SDS011;1916;51.798;12.246;2022-07-09T10:50:44;8.87;;;4.17;;
3801;SDS011;1916;51.798;12.246;2022-07-09T10:52:49;8.13;;;4.33;;
3801;SDS011;1916;51.798;12.246;2022-07-09T10:54:52;6.03;;;4.00;;
3801;SDS011;1916;51.798;12.246;2022-07-09T10:56:54;4.50;;;3.80;;
3801;SDS011;1916;51.798;12.246;2022-07-09T10:58:57;7.53;;;4.67;;
3801;SDS011;1916;51.798;12.246;2022-07-09T11:01:00;3.97;;;3.37;;
3801;SDS011;1916;51.798;12.246;2022-07-09T11:03:04;5.40;;;3.70;;
3801;SDS011;1916;51.798;12.246;2022-07-09T11:05:07;5.93;;;3.67;;
3801;SDS011;1916;51.798;12.246;2022-07-09T11:07:09;4.20;;;3.17;;
3801;SDS011;1916;51.798;12.246;2022-07-09T11:09:27;3.97;;;2.97;;
3801;SDS011;1916;51.798;12.246;2022-07-09T11:11:32;3.90;;;3.47;;
3801;SDS011;1916;51.798;12.246;2022-07-09T11:13:34;9.83;;;3.13;;
3801;SDS011;1916;51.798;12.246;2022-07-09T11:15:37;5.20;;;3.23;;
3801;SDS011;1916;51.798;12.246;2022-07-09T11:17:40;4.57;;;2.90;;
3801;SDS011;1916;51.798;12.246;2022-07-09T11:19:42;5.53;;;3.07;;
3801;SDS011;1916;51.798;12.246;2022-07-09T11:21:44;3.97;;;2.93;;
3801;SDS011;1916;51.798;12.246;2022-07-09T11:23:47;5.60;;;3.47;;
3801;SDS011;1916;51.798;12.246;2022-07-09T11:25:50;9.53;;;3.40;;
3801;SDS011;1916;51.798;12.246;2022-07-09T11:27:56;4.13;;;2.93;;
3801;SDS011;1916;51.798;12.246;2022-07-09T11:30:02;10.60;;;4.33;;
3801;SDS011;1916;51.798;12.246;2022-07-09T11:32:05;3.20;;;2.77;;
3801;SDS011;1916;51.798;12.246;2022-07-09T11:34:07;3.40;;;3.10;;
3801;SDS011;1916;51.798;12.246;2022-07-09T11:36:12;4.23;;;2.90;;
3801;SDS011;1916;51.798;12.246;2022-07-09T11:38:15;3.97;;;2.40;;
3801;SDS011;1916;51.798;12.246;2022-07-09T11:40:17;4.70;;;3.10;;
3801;SDS011;1916;51.798;12.246;2022-07-09T11:42:20;2.40;;;2.20;;
3801;SDS011;1916;51.798;12.246;2022-07-09T11:44:28;3.10;;;2.40;;
3801;SDS011;1916;51.798;12.246;2022-07-09T11:46:31;6.70;;;2.70;;
3801;SDS011;1916;51.798;12.246;2022-07-09T11:48:34;4.67;;;2.80;;
3801;SDS011;1916;51.798;12.246;2022-07-09T11:50:43;6.50;;;2.40;;
3801;SDS011;1916;51.798;12.246;2022-07-09T11:52:48;3.30;;;2.33;;
3801;SDS011;1916;51.798;12.246;2022-07-09T11:54:57;2.90;;;2.20;;
3801;SDS011;1916;51.798;12.246;2022-07-09T11:57:04;2.97;;;2.30;;
3801;SDS011;1916;51.798;12.246;2022-07-09T11:59:27;3.20;;;2.00;;
3801;SDS011;1916;51.798;12.246;2022-07-09T12:01:33;4.77;;;2.23;;
3801;SDS011;1916;51.798;12.246;2022-07-09T12:03:35;2.50;;;2.13;;
3801;SDS011;1916;51.798;12.246;2022-07-09T12:05:44;4.20;;;2.60;;
3801;SDS011;1916;51.798;12.246;2022-07-09T12:07:52;2.47;;;2.27;;
3801;SDS011;1916;51.798;12.246;2022-07-09T12:10:02;9.83;;;2.10;;
3801;SDS011;1916;51.798;12.246;2022-07-09T12:12:06;2.67;;;1.97;;
3801;SDS011;1916;51.798;12.246;2022-07-09T12:14:08;2.13;;;1.93;;
3801;SDS011;1916;51.798;12.246;2022-07-09T12:16:12;1.93;;;1.73;;
3801;SDS011;1916;51.798;12.246;2022-07-09T12:18:14;3.00;;;2.00;;
3801;SDS011;1916;51.798;12.246;2022-07-09T12:20:16;2.53;;;2.33;;
3801;SDS011;1916;51.798;12.246;2022-07-09T12:22:18;6.03;;;2.30;;
3801;SDS011;1916;51.798;12.246;2022-07-09T12:24:21;2.33;;;2.13;;
3801;SDS011;1916;51.798;12.246;2022-07-09T12:26:23;2.30;;;2.10;;
3801;SDS011;1916;51.798;12.246;2022-07-09T12:28:25;3.43;;;2.50;;